Time;durP1;ratioP1;P1;durP2;ratioP2;P2;SDS_P1;SDS_P2;PMS_P1;PMS_P2;Temp;Humidity;BMP_temperature;BMP_pressure;BME280_temperature;BME280_humidity;BME280_pressure;Samples;Min_cycle;Max_cycle;Signal;HPM_P1;HPM_P2
2022/04/10 00:01:49;;;;;;;1999.90;999.90;;;;;;;4.71;73.75;100724.56;15493897;28;20050;-64
2022/04/10 00:09:23;;;;;;;1999.90;999.90;;;;;;;4.78;74.26;100733.31;15476652;28;20034;-64
2022/04/10 00:16:56;;;;;;;;;;;;;;;4.66;74.42;100727.38;15494257;28;20125;-63
2022/04/10 00:24:29;;;;;;;1999.90;999.90;;;;;;;4.58;75.58;100726.88;15493647;28;20409;-63
2022/04/10 00:32:01;;;;;;;1999.90;999.90;;;;;;;4.51;75.15;100733.91;15506795;28;20479;-65
2022/04/10 00:39:35;;;;;;;1999.90;999.90;;;;;;;4.40;75.68;100730.41;15475635;28;20050;-66
2022/04/10 00:47:10;;;;;;;;;;;;;;;4.55;75.09;100724.72;15493356;28;20050;-62
2022/04/10 00:54:45;;;;;;;1999.90;999.90;;;;;;;4.50;74.90;100730.31;15493296;28;19921;-65
2022/04/10 01:02:17;;;;;;;1999.90;999.90;;;;;;;4.24;75.96;100731.66;15486071;28;20030;-65
2022/04/10 01:09:51;;;;;;;1999.90;999.90;;;;;;;4.49;75.75;100738.91;15503028;28;20054;-62
2022/04/10 01:17:29;;;;;;;1999.90;999.90;;;;;;;4.35;76.25;100730.44;15477196;28;20058;-62
2022/04/10 01:25:08;;;;;;;1999.90;999.90;;;;;;;4.28;76.25;100730.81;15501984;28;20068;-63
2022/04/10 01:32:44;;;;;;;1999.90;999.90;;;;;;;4.26;76.37;100735.78;15514681;28;20039;-64
2022/04/10 01:40:23;;;;;;;1999.90;999.90;;;;;;;4.22;76.81;100742.19;15469201;28;20138;-64
2022/04/10 01:48:05;;;;;;;1999.90;999.90;;;;;;;4.21;76.63;100746.06;15472890;28;20562;-65
2022/04/10 01:55:42;;;;;;;1999.90;999.90;;;;;;;4.38;75.95;100748.38;15462429;28;20374;-64
2022/04/10 02:03:31;;;;;;;1999.90;999.90;;;;;;;4.25;75.55;100749.88;15522333;28;20081;-64
2022/04/10 02:11:24;;;;;;;1999.90;999.90;;;;;;;4.15;76.54;100742.50;15522879;28;20038;-64
2022/04/10 02:19:03;;;;;;;1999.90;999.90;;;;;;;4.07;76.50;100742.34;15521497;28;20230;-61
2022/04/10 02:26:37;;;;;;;1999.90;999.90;;;;;;;4.08;77.25;100749.50;15481660;28;20050;-63
2022/04/10 02:34:09;;;;;;;1999.90;999.90;;;;;;;4.10;77.27;100758.31;15497949;28;20190;-64
2022/04/10 02:41:43;;;;;;;1999.90;999.90;;;;;;;4.31;76.11;100752.31;15495894;28;20069;-64
2022/04/10 02:49:15;;;;;;;;;;;;;;;4.27;75.75;100753.16;15464712;28;20042;-63
2022/04/10 02:56:49;;;;;;;1999.90;999.90;;;;;;;4.02;76.72;100746.75;15480117;28;19921;-61
2022/04/10 03:04:21;;;;;;;;;;;;;;;4.47;74.67;100755.75;15481712;28;20065;-63
2022/04/10 03:11:55;;;;;;;1999.90;999.90;;;;;;;4.19;75.76;100760.16;15514754;28;20027;-63
2022/04/10 03:19:31;;;;;;;1999.90;999.90;;;;;;;4.06;75.93;100763.56;15455082;28;20463;-63
2022/04/10 03:27:05;;;;;;;1999.90;999.90;;;;;;;4.19;75.62;100770.41;15493942;28;20057;-63
2022/04/10 03:34:41;;;;;;;1999.90;999.90;;;;;;;4.20;75.33;100770.09;15475781;28;20045;-63
2022/04/10 03:42:17;;;;;;;1999.90;999.90;;;;;;;4.12;75.80;100778.19;15461852;28;20454;-63
2022/04/10 03:49:54;;;;;;;1999.90;999.90;;;;;;;4.21;75.17;100788.31;15461268;28;20056;-64
2022/04/10 03:57:28;;;;;;;1999.90;999.90;;;;;;;4.41;75.05;100792.03;15532800;28;20049;-63
2022/04/10 04:05:02;;;;;;;1999.90;999.90;;;;;;;4.54;74.03;100800.44;15519629;28;20077;-64
2022/04/10 04:12:36;;;;;;;1999.90;999.90;;;;;;;4.56;73.69;100800.16;15443063;28;20499;-63
2022/04/10 04:20:10;;;;;;;1999.90;999.90;;;;;;;4.35;73.97;100803.09;15487726;28;20112;-64
2022/04/10 04:27:44;;;;;;;1999.90;999.90;;;;;;;4.63;73.58;100829.13;15491015;28;20054;-62
2022/04/10 04:35:17;;;;;;;1999.90;999.90;;;;;;;4.95;73.34;100849.00;15443292;28;20415;-63
2022/04/10 04:42:52;;;;;;;1999.90;999.90;;;;;;;5.07;73.22;100863.25;15468528;28;20097;-64
2022/04/10 04:50:26;;;;;;;1999.90;999.90;;;;;;;4.87;73.34;100850.44;15497507;28;20096;-63
2022/04/10 04:58:01;;;;;;;1999.90;999.90;;;;;;;5.18;72.57;100871.13;15485688;28;20380;-63
2022/04/10 05:05:36;;;;;;;1999.90;999.90;;;;;;;5.29;72.76;100877.38;15485479;28;20362;-63
2022/04/10 05:13:19;;;;;;;1999.90;999.90;;;;;;;5.14;72.09;100880.34;15501108;28;20039;-63
2022/04/10 05:20:52;;;;;;;1999.90;999.90;;;;;;;5.22;71.23;100883.28;15501433;28;20070;-64
2022/04/10 05:28:29;;;;;;;1999.90;999.90;;;;;;;5.77;69.76;100891.22;15454364;28;20438;-67
2022/04/10 05:36:01;;;;;;;1999.90;999.90;;;;;;;5.93;69.78;100916.78;15499647;28;20104;-65
2022/04/10 05:43:42;;;;;;;1999.90;999.90;;;;;;;5.85;70.40;100922.97;15480036;28;20067;-64
2022/04/10 05:51:14;;;;;;;1999.90;999.90;;;;;;;6.23;69.38;100924.69;15494671;28;20046;-63
2022/04/10 05:58:48;;;;;;;1999.90;999.90;;;;;;;6.44;67.65;100933.50;15484289;28;20077;-62
2022/04/10 06:06:21;;;;;;;1999.90;999.90;;;;;;;6.43;67.53;100937.41;15483007;28;20064;-64
2022/04/10 06:14:02;;;;;;;1999.90;999.90;;;;;;;6.23;66.43;100938.53;15493466;28;20050;-64
2022/04/10 06:21:36;;;;;;;1999.90;999.90;;;;;;;7.28;64.33;100946.56;15483298;28;20046;-64
2022/04/10 06:29:11;;;;;;;1999.90;999.90;;;;;;;7.49;63.60;100945.88;15431175;28;20038;-64
2022/04/10 06:36:55;;;;;;;1999.90;999.90;;;;;;;7.76;63.05;100966.47;15445684;28;20082;-64
2022/04/10 06:44:29;;;;;;;1999.90;999.90;;;;;;;6.45;65.24;100971.19;15434234;28;20102;-64
2022/04/10 06:52:13;;;;;;;1999.90;999.90;;;;;;;6.65;65.51;100973.66;15446966;28;20085;-63
2022/04/10 06:59:50;;;;;;;1999.90;999.90;;;;;;;6.62;65.17;100992.88;15438001;28;20085;-62
2022/04/10 07:07:25;;;;;;;1999.90;999.90;;;;;;;6.95;64.71;100994.56;15474845;28;20113;-63
2022/04/10 07:15:02;;;;;;;1999.90;999.90;;;;;;;7.45;62.70;101002.34;15443010;28;20039;-64
2022/04/10 07:30:26;;;;;;;1999.90;999.90;;;;;;;7.16;62.25;101010.88;15434765;28;20642;-64
2022/04/10 07:38:04;;;;;;;1999.90;999.90;;;;;;;7.24;62.43;101013.78;15418946;28;20057;-62
2022/04/10 07:53:47;;;;;;;1999.90;999.90;;;;;;;7.81;61.10;101038.59;15441886;28;20129;-62
2022/04/10 08:01:23;;;;;;;1999.90;999.90;;;;;;;7.58;62.36;101042.38;15451473;28;20061;-63
2022/04/10 08:08:56;;;;;;;1999.90;999.90;;;;;;;7.92;61.32;101040.06;15439222;28;20177;-63
2022/04/10 08:16:30;;;;;;;1999.90;999.90;;;;;;;8.33;60.41;101065.06;15455187;28;20058;-61
2022/04/10 08:24:02;;;;;;;1999.90;999.90;;;;;;;8.11;58.81;101057.47;15468142;28;20048;-63
2022/04/10 08:31:36;;;;;;;1999.90;999.90;;;;;;;9.13;56.93;101082.28;15466339;28;20455;-63
2022/04/10 08:39:08;;;;;;;1999.90;999.90;;;;;;;9.77;54.53;101072.59;15503630;28;20038;-63
2022/04/10 08:46:42;;;;;;;1999.90;999.90;;;;;;;10.99;51.45;101083.06;15496932;28;20039;-64
2022/04/10 08:54:14;;;;;;;1999.90;999.90;;;;;;;11.11;51.28;101085.19;15491064;28;20100;-64
2022/04/10 09:01:52;;;;;;;1999.90;999.90;;;;;;;10.85;52.54;101084.38;15458942;28;20060;-64
2022/04/10 09:09:24;;;;;;;1999.90;999.90;;;;;;;10.38;50.83;101086.84;15486533;28;20055;-64
2022/04/10 09:17:15;;;;;;;1999.90;999.90;;;;;;;9.35;54.48;101090.66;15456436;28;20050;-63
2022/04/10 09:25:05;;;;;;;1999.90;999.90;;;;;;;9.55;54.21;101097.69;15478831;28;20132;-63
2022/04/10 09:32:40;;;;;;;1999.90;999.90;;;;;;;9.81;54.34;101097.88;15485545;28;20054;-61
2022/04/10 09:40:27;;;;;;;1999.90;999.90;;;;;;;10.45;51.62;101105.94;15435144;28;20134;-64
2022/04/10 09:48:18;;;;;;;1999.90;999.90;;;;;;;12.23;48.78;101105.78;15456014;28;20047;-66
2022/04/10 09:55:54;;;;;;;1999.90;999.90;;;;;;;11.84;48.80;101105.72;15427414;28;20055;-66
2022/04/10 10:03:30;;;;;;;1999.90;999.90;;;;;;;14.22;44.26;101119.13;15465658;28;20137;-65
2022/04/10 10:11:02;;;;;;;1999.90;999.90;;;;;;;14.00;45.21;101117.56;15462189;28;20114;-67
2022/04/10 10:18:37;;;;;;;1999.90;999.90;;;;;;;13.11;44.36;101096.56;15442765;28;20516;-67
2022/04/10 10:26:24;;;;;;;1999.90;999.90;;;;;;;13.71;42.03;101096.06;15436916;28;20133;-68
2022/04/10 10:34:03;;;;;;;1999.90;999.90;;;;;;;12.23;44.32;101089.00;15473309;28;20471;-64
2022/04/10 10:41:36;;;;;;;1999.90;999.90;;;;;;;10.58;50.01;101122.53;15482981;28;20576;-63
2022/04/10 10:49:18;;;;;;;1999.90;999.90;;;;;;;11.49;52.15;101109.69;15485414;28;20132;-63
2022/04/10 10:56:59;;;;;;;1999.90;999.90;;;;;;;11.82;50.01;101107.22;15725586;27;20373;-62
2022/04/10 11:04:39;;;;;;;1999.90;999.90;;;;;;;10.67;49.88;101095.47;15721166;28;20432;-62
2022/04/10 11:12:15;;;;;;;1999.90;999.90;;;;;;;10.99;48.40;101096.19;15724206;28;20524;-63
2022/04/10 11:19:48;;;;;;;1999.90;999.90;;;;;;;10.78;47.42;101109.97;15729745;28;20067;-64
2022/04/10 11:27:49;;;;;;;1999.90;999.90;;;;;;;11.40;46.99;101109.69;15704046;28;20071;-64
2022/04/10 11:35:25;;;;;;;1999.90;999.90;;;;;;;9.84;48.08;101127.88;15720949;28;20072;-63
2022/04/10 11:43:02;;;;;;;1999.90;999.90;;;;;;;11.98;44.01;101127.88;15725378;28;20769;-63
2022/04/10 11:50:34;;;;;;;1999.90;999.90;;;;;;;10.76;45.43;101120.63;15719091;28;20468;-63
2022/04/10 11:58:16;;;;;;;1999.90;999.90;;;;;;;11.33;45.08;101122.50;15706589;28;20045;-63
2022/04/10 12:05:49;;;;;;;1999.90;999.90;;;;;;;13.50;43.17;101126.13;15684766;28;20132;-63
2022/04/10 12:13:28;;;;;;;1999.90;999.90;;;;;;;12.13;42.25;101121.78;15680896;28;20049;-63
2022/04/10 12:21:01;;;;;;;1999.90;999.90;;;;;;;12.33;42.50;101130.59;15682393;28;20516;-63
2022/04/10 12:28:39;;;;;;;1999.90;999.90;;;;;;;11.99;43.08;101118.38;15652779;28;20095;-63
2022/04/10 12:36:18;;;;;;;1999.90;999.90;;;;;;;11.77;44.90;101124.13;15679070;28;20474;-62
2022/04/10 12:44:03;;;;;;;1999.90;999.90;;;;;;;11.18;44.16;101116.25;15696927;28;20049;-63
2022/04/10 12:51:36;;;;;;;1999.90;999.90;;;;;;;10.88;46.41;101137.56;15667240;28;20112;-63
2022/04/10 12:59:09;;;;;;;1999.90;999.90;;;;;;;9.34;56.88;101161.44;15672783;28;20049;-63
2022/04/10 13:06:48;;;;;;;;;;;;;;;9.55;61.50;101159.81;15671593;28;20068;-64
2022/04/10 13:14:26;;;;;;;1999.90;999.90;;;;;;;8.93;64.85;101181.81;15671241;28;20002;-64
2022/04/10 13:21:59;;;;;;;1999.90;999.90;;;;;;;7.76;69.95;101199.84;15677690;28;20041;-63
2022/04/10 13:29:32;;;;;;;1999.90;999.90;;;;;;;15.40;52.81;101182.81;15677537;28;20496;-64
2022/04/10 13:37:04;;;;;;;;;;;;;;;20.37;40.75;101167.44;15679461;28;20060;-65
2022/04/10 13:44:38;;;;;;;1999.90;999.90;;;;;;;16.41;48.02;101170.47;15677318;28;20372;-66
2022/04/10 13:52:11;;;;;;;1999.90;999.90;;;;;;;18.44;42.02;101166.63;15677269;28;20045;-64
2022/04/10 13:59:44;;;;;;;1999.90;999.90;;;;;;;13.42;48.08;101160.66;15655207;28;20407;-63
2022/04/10 14:07:17;;;;;;;1999.90;999.90;;;;;;;12.18;56.63;101143.13;15663326;28;20041;-63
2022/04/10 14:14:50;;;;;;;1999.90;999.90;;;;;;;11.21;54.17;101134.34;15664976;28;20041;-62
2022/04/10 14:22:22;;;;;;;1999.90;999.90;;;;;;;11.43;55.15;101131.38;15658612;28;20045;-63
2022/04/10 14:29:56;;;;;;;1999.90;999.90;;;;;;;11.19;54.53;101145.84;15639687;28;20071;-63
2022/04/10 14:37:28;;;;;;;1999.90;999.90;;;;;;;8.57;64.63;101173.38;15674184;28;20416;-61
2022/04/10 14:45:03;;;;;;;1999.90;999.90;;;;;;;9.36;65.52;101167.50;15657950;28;20039;-63
2022/04/10 14:52:36;;;;;;;1999.90;999.90;;;;;;;9.87;64.95;101151.50;15675129;28;20037;-64
2022/04/10 15:00:12;;;;;;;1999.90;999.90;;;;;;;10.52;62.39;101150.91;15674883;28;20099;-63
2022/04/10 15:07:50;;;;;;;1999.90;999.90;;;;;;;10.49;59.48;101140.41;15658265;28;20119;-64
2022/04/10 15:15:24;;;;;;;1999.90;999.90;;;;;;;11.06;55.56;101144.03;15664300;28;20037;-66
2022/04/10 15:22:56;;;;;;;1999.90;999.90;;;;;;;10.56;49.16;101157.50;15678900;28;20037;-64
2022/04/10 15:30:34;;;;;;;1999.90;999.90;;;;;;;10.89;48.24;101150.38;15625340;28;20054;-64
2022/04/10 15:38:07;;;;;;;1999.90;999.90;;;;;;;10.76;49.03;101156.09;15616633;28;20045;-64
2022/04/10 15:45:40;;;;;;;1999.90;999.90;;;;;;;10.58;49.52;101166.38;15671817;22;20359;-58
2022/04/10 15:53:13;;;;;;;1999.90;999.90;;;;;;;11.08;50.59;101164.06;15679815;28;20048;-55
2022/04/10 16:00:47;;;;;;;1999.90;999.90;;;;;;;10.88;50.03;101156.28;15677453;28;20071;-62
2022/04/10 16:08:20;;;;;;;1999.90;999.90;;;;;;;10.48;50.83;101163.84;15626124;28;20175;-58
2022/04/10 16:15:53;;;;;;;1999.90;999.90;;;;;;;10.25;52.67;101191.81;15617479;28;20434;-61
2022/04/10 16:23:25;;;;;;;;;;;;;;;9.30;56.40;101227.25;15586201;28;20048;-60
2022/04/10 16:30:59;;;;;;;1999.90;999.90;;;;;;;10.25;52.97;101211.34;15602020;28;19958;-58
2022/04/10 16:38:34;;;;;;;1999.90;999.90;;;;;;;10.62;50.59;101225.97;15617059;28;20058;-61
2022/04/10 16:46:08;;;;;;;1999.90;999.90;;;;;;;9.80;52.21;101216.91;15596668;28;20049;-58
2022/04/10 16:53:42;;;;;;;1999.90;999.90;;;;;;;9.55;53.48;101234.19;15617252;28;20049;-58
2022/04/10 17:01:16;;;;;;;1999.90;999.90;;;;;;;9.68;53.31;101235.28;15635193;28;20072;-61
2022/04/10 17:08:49;;;;;;;1999.90;999.90;;;;;;;9.60;53.60;101244.44;15615199;28;20100;-59
2022/04/10 17:16:22;;;;;;;1999.90;999.90;;;;;;;9.37;55.03;101255.47;15621454;28;20076;-61
2022/04/10 17:23:54;;;;;;;1999.90;999.90;;;;;;;9.44;55.53;101252.28;15676087;28;20037;-59
2022/04/10 17:31:28;;;;;;;1999.90;999.90;;;;;;;9.36;56.16;101267.78;15674983;28;20116;-60
2022/04/10 17:39:00;;;;;;;1999.90;999.90;;;;;;;9.69;55.43;101260.09;15621167;28;20485;-58
2022/04/10 17:46:34;;;;;;;1999.90;999.90;;;;;;;9.45;55.33;101270.66;15614571;28;20046;-61
2022/04/10 17:54:08;;;;;;;1999.90;999.90;;;;;;;9.02;56.69;101295.22;15595197;28;20052;-58
2022/04/10 18:01:42;;;;;;;1999.90;999.90;;;;;;;8.98;56.92;101311.72;15593579;28;20131;-58
2022/04/10 18:09:20;;;;;;;1999.90;999.90;;;;;;;8.98;57.17;101313.69;15635367;28;20072;-59
2022/04/10 18:17:04;;;;;;;1999.90;999.90;;;;;;;8.64;57.66;101329.56;15654599;28;20489;-59
2022/04/10 18:24:55;;;;;;;;;;;;;;;8.47;58.43;101325.75;15672780;28;20053;-60
2022/04/10 18:32:48;;;;;;;1999.90;999.90;;;;;;;8.20;58.77;101330.03;15666149;28;19921;-60
2022/04/10 18:40:22;;;;;;;1999.90;999.90;;;;;;;8.07;58.72;101342.72;15631080;28;20427;-57
2022/04/10 18:47:55;;;;;;;1999.90;999.90;;;;;;;8.01;59.28;101359.78;15653951;28;20131;-62
2022/04/10 18:55:28;;;;;;;;;;;;;;;8.19;58.16;101372.03;15656243;28;20453;-62
2022/04/10 19:03:03;;;;;;;1999.90;999.90;;;;;;;8.03;59.10;101377.81;15645016;28;19956;-62
2022/04/10 19:10:36;;;;;;;1999.90;999.90;;;;;;;7.81;59.85;101389.53;15670593;28;20520;-59
2022/04/10 19:18:09;;;;;;;1999.90;999.90;;;;;;;7.74;59.73;101399.34;15666397;28;20029;-60
2022/04/10 19:25:42;;;;;;;1999.90;999.90;;;;;;;7.51;60.03;101401.84;15684185;28;20132;-63
2022/04/10 19:33:16;;;;;;;1999.90;999.90;;;;;;;7.65;59.92;101406.69;15665374;28;20083;-59
2022/04/10 19:40:48;;;;;;;;;;;;;;;7.74;59.81;101416.00;15683450;28;20473;-59
2022/04/10 19:48:21;;;;;;;1999.90;999.90;;;;;;;7.48;61.72;101419.06;15682422;28;19921;-58
2022/04/10 19:55:54;;;;;;;1999.90;999.90;;;;;;;7.57;60.68;101415.66;15662931;28;20055;-62
2022/04/10 20:03:28;;;;;;;1999.90;999.90;;;;;;;7.50;61.18;101425.19;15646468;28;20049;-62
2022/04/10 20:11:00;;;;;;;1999.90;999.90;;;;;;;7.46;61.39;101432.44;15664948;28;20178;-59
2022/04/10 20:18:33;;;;;;;1999.90;999.90;;;;;;;7.50;61.66;101422.41;15680176;28;20061;-59
2022/04/10 20:26:07;;;;;;;1999.90;999.90;;;;;;;7.49;62.48;101436.56;15668554;28;20476;-63
2022/04/10 20:33:41;;;;;;;1999.90;999.90;;;;;;;7.52;62.76;101444.34;15653569;28;20042;-58
2022/04/10 20:41:14;;;;;;;1999.90;999.90;;;;;;;7.52;62.74;101447.09;15635292;28;20065;-59
2022/04/10 20:48:47;;;;;;;1999.90;999.90;;;;;;;7.33;63.56;101455.34;15678795;28;20057;-59
2022/04/10 20:56:19;;;;;;;1999.90;999.90;;;;;;;7.07;63.65;101446.44;15679473;28;20041;-60
2022/04/10 21:03:53;;;;;;;1999.90;999.90;;;;;;;6.99;63.62;101454.59;15637762;28;20041;-58
2022/04/10 21:11:25;;;;;;;1999.90;999.90;;;;;;;6.98;63.38;101459.28;15669894;28;20045;-57
2022/04/10 21:18:58;;;;;;;1999.90;999.90;;;;;;;7.26;62.32;101454.88;15684907;28;20503;-57
2022/04/10 21:26:31;;;;;;;;;;;;;;;7.41;61.47;101457.50;15649976;28;20055;-62
2022/04/10 21:34:04;;;;;;;1999.90;999.90;;;;;;;7.32;61.72;101467.59;15663609;28;20274;-59
2022/04/10 21:41:36;;;;;;;;;;;;;;;7.61;61.20;101472.25;15693244;22;20123;-62
2022/04/10 21:49:10;;;;;;;1999.90;999.90;;;;;;;7.42;61.47;101472.22;15742766;28;19927;-63
2022/04/10 21:56:42;;;;;;;1999.90;999.90;;;;;;;7.55;60.47;101487.34;15734902;28;20041;-63
2022/04/10 22:04:16;;;;;;;1999.90;999.90;;;;;;;7.57;60.21;101483.16;15719807;28;20040;-62
2022/04/10 22:11:48;;;;;;;1999.90;999.90;;;;;;;7.69;59.63;101488.28;15743123;28;20056;-63
2022/04/10 22:19:21;;;;;;;1999.90;999.90;;;;;;;7.75;59.60;101499.06;15729210;28;20505;-62
2022/04/10 22:26:54;;;;;;;1999.90;999.90;;;;;;;7.62;59.95;101498.94;15724847;28;20132;-62
2022/04/10 22:34:27;;;;;;;1999.90;999.90;;;;;;;7.81;59.58;101502.59;15699726;28;20051;-62
2022/04/10 22:42:00;;;;;;;1999.90;999.90;;;;;;;7.44;60.33;101509.66;15699343;28;20048;-61
2022/04/10 22:49:33;;;;;;;1999.90;999.90;;;;;;;7.63;59.79;101520.03;15716864;28;20044;-63
2022/04/10 22:57:05;;;;;;;;;;;;;;;7.49;60.91;101529.03;15700585;28;20048;-63
2022/04/10 23:04:40;;;;;;;1999.90;999.90;;;;;;;7.41;60.84;101529.69;15686076;28;19921;-62
2022/04/10 23:12:12;;;;;;;1999.90;999.90;;;;;;;7.41;61.01;101534.44;15720281;28;20049;-62
2022/04/10 23:19:47;;;;;;;1999.90;999.90;;;;;;;7.34;61.58;101531.97;15700568;28;20053;-62
2022/04/10 23:27:20;;;;;;;1999.90;999.90;;;;;;;7.44;61.13;101531.88;15678019;28;20106;-63
2022/04/10 23:34:53;;;;;;;1999.90;999.90;;;;;;;7.39;61.86;101534.69;15678381;28;20128;-62
2022/04/10 23:42:25;;;;;;;;;;;;;;;7.59;61.42;101538.41;15681485;28;20166;-63
2022/04/10 23:49:59;;;;;;;1999.90;999.90;;;;;;;7.38;62.27;101529.44;15719417;28;19927;-63
2022/04/10 23:57:31;;;;;;;1999.90;999.90;;;;;;;7.22;62.14;101520.44;15694937;28;20468;-63
